sensor_id;sensor_type;location;lat;lon;timestamp;temperature;humidity
33139;DHT22;19501;50.948;5.316;2022-11-15T00:00:17;11.20;99.90
33139;DHT22;19501;50.948;5.316;2022-11-15T00:02:43;11.30;99.90
33139;DHT22;19501;50.948;5.316;2022-11-15T00:05:08;11.30;99.90
33139;DHT22;19501;50.948;5.316;2022-11-15T00:07:34;11.40;99.90
33139;DHT22;19501;50.948;5.316;2022-11-15T00:10:00;11.50;99.90
33139;DHT22;19501;50.948;5.316;2022-11-15T00:12:27;11.50;99.90
33139;DHT22;19501;50.948;5.316;2022-11-15T00:14:53;11.60;99.90
33139;DHT22;19501;50.948;5.316;2022-11-15T00:17:21;11.60;99.90
33139;DHT22;19501;50.948;5.316;2022-11-15T00:19:47;11.60;99.90
33139;DHT22;19501;50.948;5.316;2022-11-15T00:22:13;11.60;99.90
33139;DHT22;19501;50.948;5.316;2022-11-15T00:24:39;11.60;99.90
33139;DHT22;19501;50.948;5.316;2022-11-15T00:27:04;11.60;99.90
33139;DHT22;19501;50.948;5.316;2022-11-15T00:29:30;11.60;99.90
33139;DHT22;19501;50.948;5.316;2022-11-15T00:31:56;11.60;99.90
33139;DHT22;19501;50.948;5.316;2022-11-15T00:34:22;11.60;99.90
33139;DHT22;19501;50.948;5.316;2022-11-15T00:36:48;11.70;99.90
33139;DHT22;19501;50.948;5.316;2022-11-15T00:39:14;11.60;99.90
33139;DHT22;19501;50.948;5.316;2022-11-15T00:41:40;11.60;99.90
33139;DHT22;19501;50.948;5.316;2022-11-15T00:44:05;11.60;99.90
33139;DHT22;19501;50.948;5.316;2022-11-15T00:46:31;11.60;99.90
33139;DHT22;19501;50.948;5.316;2022-11-15T00:48:57;11.60;99.90
33139;DHT22;19501;50.948;5.316;2022-11-15T00:51:23;11.70;99.90
33139;DHT22;19501;50.948;5.316;2022-11-15T00:53:49;11.70;99.90
33139;DHT22;19501;50.948;5.316;2022-11-15T00:56:15;11.70;99.90
33139;DHT22;19501;50.948;5.316;2022-11-15T00:58:41;11.70;99.90
33139;DHT22;19501;50.948;5.316;2022-11-15T01:01:12;11.80;99.90
33139;DHT22;19501;50.948;5.316;2022-11-15T01:03:38;11.80;99.90
33139;DHT22;19501;50.948;5.316;2022-11-15T01:06:04;11.80;99.90
33139;DHT22;19501;50.948;5.316;2022-11-15T01:08:30;11.90;99.90
33139;DHT22;19501;50.948;5.316;2022-11-15T01:11:02;11.90;99.90
33139;DHT22;19501;50.948;5.316;2022-11-15T01:13:30;11.80;99.90
33139;DHT22;19501;50.948;5.316;2022-11-15T01:15:56;11.80;99.90
33139;DHT22;19501;50.948;5.316;2022-11-15T01:18:21;11.90;99.90
33139;DHT22;19501;50.948;5.316;2022-11-15T01:20:47;11.90;99.90
33139;DHT22;19501;50.948;5.316;2022-11-15T01:23:13;11.90;99.90
33139;DHT22;19501;50.948;5.316;2022-11-15T01:25:38;11.90;99.90
33139;DHT22;19501;50.948;5.316;2022-11-15T01:28:04;12.00;99.90
33139;DHT22;19501;50.948;5.316;2022-11-15T01:30:29;11.90;99.90
33139;DHT22;19501;50.948;5.316;2022-11-15T01:32:55;11.90;99.90
33139;DHT22;19501;50.948;5.316;2022-11-15T01:35:21;12.00;99.90
33139;DHT22;19501;50.948;5.316;2022-11-15T01:37:49;11.90;99.90
33139;DHT22;19501;50.948;5.316;2022-11-15T01:40:15;12.10;99.90
33139;DHT22;19501;50.948;5.316;2022-11-15T01:42:41;12.00;99.90
33139;DHT22;19501;50.948;5.316;2022-11-15T01:45:14;12.00;99.90
33139;DHT22;19501;50.948;5.316;2022-11-15T01:47:43;11.90;99.90
33139;DHT22;19501;50.948;5.316;2022-11-15T01:50:13;12.10;99.90
33139;DHT22;19501;50.948;5.316;2022-11-15T01:52:41;12.10;99.90
33139;DHT22;19501;50.948;5.316;2022-11-15T01:55:18;12.10;99.90
33139;DHT22;19501;50.948;5.316;2022-11-15T01:57:47;12.00;99.90
33139;DHT22;19501;50.948;5.316;2022-11-15T02:00:14;12.10;99.90
33139;DHT22;19501;50.948;5.316;2022-11-15T02:02:40;12.10;99.90
33139;DHT22;19501;50.948;5.316;2022-11-15T02:05:06;12.20;99.90
33139;DHT22;19501;50.948;5.316;2022-11-15T02:07:32;12.10;99.90
33139;DHT22;19501;50.948;5.316;2022-11-15T02:10:12;12.20;99.90
33139;DHT22;19501;50.948;5.316;2022-11-15T02:12:38;12.20;99.90
33139;DHT22;19501;50.948;5.316;2022-11-15T02:15:05;12.20;99.90
33139;DHT22;19501;50.948;5.316;2022-11-15T02:17:56;12.20;99.90
33139;DHT22;19501;50.948;5.316;2022-11-15T02:31:45;12.40;99.90
33139;DHT22;19501;50.948;5.316;2022-11-15T02:37:15;12.40;99.90
33139;DHT22;19501;50.948;5.316;2022-11-15T02:40:14;12.40;99.90
33139;DHT22;19501;50.948;5.316;2022-11-15T02:42:54;12.50;99.90
33139;DHT22;19501;50.948;5.316;2022-11-15T02:45:44;12.50;99.90
33139;DHT22;19501;50.948;5.316;2022-11-15T02:48:12;12.60;99.90
33139;DHT22;19501;50.948;5.316;2022-11-15T02:50:38;12.60;99.90
33139;DHT22;19501;50.948;5.316;2022-11-15T02:53:07;12.50;99.90
33139;DHT22;19501;50.948;5.316;2022-11-15T02:55:36;12.40;99.90
33139;DHT22;19501;50.948;5.316;2022-11-15T03:06:42;12.50;99.90
33139;DHT22;19501;50.948;5.316;2022-11-15T03:09:23;12.40;99.90
33139;DHT22;19501;50.948;5.316;2022-11-15T03:12:04;12.50;99.90
33139;DHT22;19501;50.948;5.316;2022-11-15T03:14:39;12.50;99.90
33139;DHT22;19501;50.948;5.316;2022-11-15T03:17:28;12.50;99.90
33139;DHT22;19501;50.948;5.316;2022-11-15T03:19:57;12.50;99.90
33139;DHT22;19501;50.948;5.316;2022-11-15T03:22:26;12.40;99.90
33139;DHT22;19501;50.948;5.316;2022-11-15T03:25:00;12.50;99.90
33139;DHT22;19501;50.948;5.316;2022-11-15T03:27:30;12.30;99.90
33139;DHT22;19501;50.948;5.316;2022-11-15T03:30:00;12.30;99.90
33139;DHT22;19501;50.948;5.316;2022-11-15T03:32:37;12.30;99.90
33139;DHT22;19501;50.948;5.316;2022-11-15T03:35:08;12.30;99.90
33139;DHT22;19501;50.948;5.316;2022-11-15T03:37:46;12.30;99.90
33139;DHT22;19501;50.948;5.316;2022-11-15T03:40:15;12.40;99.90
33139;DHT22;19501;50.948;5.316;2022-11-15T03:43:05;12.40;99.90
33139;DHT22;19501;50.948;5.316;2022-11-15T03:45:41;12.40;99.90
33139;DHT22;19501;50.948;5.316;2022-11-15T03:48:21;12.30;99.90
33139;DHT22;19501;50.948;5.316;2022-11-15T03:50:48;12.30;99.90
33139;DHT22;19501;50.948;5.316;2022-11-15T03:53:14;12.20;99.90
33139;DHT22;19501;50.948;5.316;2022-11-15T03:55:40;12.30;99.90
33139;DHT22;19501;50.948;5.316;2022-11-15T03:58:05;12.40;99.90
33139;DHT22;19501;50.948;5.316;2022-11-15T04:00:32;12.30;99.90
33139;DHT22;19501;50.948;5.316;2022-11-15T04:02:58;12.40;99.90
33139;DHT22;19501;50.948;5.316;2022-11-15T04:05:24;12.40;99.90
33139;DHT22;19501;50.948;5.316;2022-11-15T04:07:50;12.40;99.90
33139;DHT22;19501;50.948;5.316;2022-11-15T04:10:15;12.40;99.90
33139;DHT22;19501;50.948;5.316;2022-11-15T04:12:43;12.50;99.90
33139;DHT22;19501;50.948;5.316;2022-11-15T04:15:16;12.60;99.90
33139;DHT22;19501;50.948;5.316;2022-11-15T04:17:47;12.70;99.90
33139;DHT22;19501;50.948;5.316;2022-11-15T04:20:22;12.60;99.90
33139;DHT22;19501;50.948;5.316;2022-11-15T04:23:11;12.60;99.90
33139;DHT22;19501;50.948;5.316;2022-11-15T04:25:58;12.50;99.90
33139;DHT22;19501;50.948;5.316;2022-11-15T04:28:24;12.60;99.90
33139;DHT22;19501;50.948;5.316;2022-11-15T04:30:51;12.60;99.90
33139;DHT22;19501;50.948;5.316;2022-11-15T04:33:17;12.70;99.90
33139;DHT22;19501;50.948;5.316;2022-11-15T04:35:44;12.60;99.90
33139;DHT22;19501;50.948;5.316;2022-11-15T04:38:29;12.60;99.90
33139;DHT22;19501;50.948;5.316;2022-11-15T04:40:55;12.70;99.90
33139;DHT22;19501;50.948;5.316;2022-11-15T04:43:20;12.60;99.90
33139;DHT22;19501;50.948;5.316;2022-11-15T04:45:46;12.40;99.90
33139;DHT22;19501;50.948;5.316;2022-11-15T04:48:12;12.40;99.90
33139;DHT22;19501;50.948;5.316;2022-11-15T04:50:37;12.40;99.90
33139;DHT22;19501;50.948;5.316;2022-11-15T04:53:04;12.30;99.90
33139;DHT22;19501;50.948;5.316;2022-11-15T04:55:29;12.30;99.90
33139;DHT22;19501;50.948;5.316;2022-11-15T04:57:59;12.30;99.90
33139;DHT22;19501;50.948;5.316;2022-11-15T05:00:26;12.00;99.90
33139;DHT22;19501;50.948;5.316;2022-11-15T05:02:51;11.70;99.90
33139;DHT22;19501;50.948;5.316;2022-11-15T05:05:36;11.50;99.90
33139;DHT22;19501;50.948;5.316;2022-11-15T05:08:01;11.30;99.90
33139;DHT22;19501;50.948;5.316;2022-11-15T05:10:27;11.30;99.90
33139;DHT22;19501;50.948;5.316;2022-11-15T05:12:53;11.20;99.90
33139;DHT22;19501;50.948;5.316;2022-11-15T05:15:19;11.10;99.90
33139;DHT22;19501;50.948;5.316;2022-11-15T05:17:45;11.00;99.90
33139;DHT22;19501;50.948;5.316;2022-11-15T05:20:11;11.00;99.90
33139;DHT22;19501;50.948;5.316;2022-11-15T05:22:37;11.00;99.90
33139;DHT22;19501;50.948;5.316;2022-11-15T05:25:03;11.00;99.90
33139;DHT22;19501;50.948;5.316;2022-11-15T05:27:33;11.00;99.90
33139;DHT22;19501;50.948;5.316;2022-11-15T05:29:59;10.90;99.90
33139;DHT22;19501;50.948;5.316;2022-11-15T05:32:25;10.80;99.90
33139;DHT22;19501;50.948;5.316;2022-11-15T05:34:51;10.70;99.90
33139;DHT22;19501;50.948;5.316;2022-11-15T05:37:17;10.80;99.90
33139;DHT22;19501;50.948;5.316;2022-11-15T05:39:43;10.80;99.90
33139;DHT22;19501;50.948;5.316;2022-11-15T05:42:14;10.90;99.90
33139;DHT22;19501;50.948;5.316;2022-11-15T05:44:43;10.90;99.90
33139;DHT22;19501;50.948;5.316;2022-11-15T05:47:12;11.00;99.90
33139;DHT22;19501;50.948;5.316;2022-11-15T05:49:39;11.00;99.90
33139;DHT22;19501;50.948;5.316;2022-11-15T05:52:07;11.00;99.90
33139;DHT22;19501;50.948;5.316;2022-11-15T05:54:36;11.00;99.90
33139;DHT22;19501;50.948;5.316;2022-11-15T05:57:04;11.00;99.90
33139;DHT22;19501;50.948;5.316;2022-11-15T05:59:31;11.10;99.90
33139;DHT22;19501;50.948;5.316;2022-11-15T06:01:57;11.10;99.90
33139;DHT22;19501;50.948;5.316;2022-11-15T06:04:23;11.00;99.90
33139;DHT22;19501;50.948;5.316;2022-11-15T06:06:49;11.00;99.90
33139;DHT22;19501;50.948;5.316;2022-11-15T06:09:14;11.00;99.90
33139;DHT22;19501;50.948;5.316;2022-11-15T06:11:40;11.00;99.90
33139;DHT22;19501;50.948;5.316;2022-11-15T06:14:05;11.00;99.90
33139;DHT22;19501;50.948;5.316;2022-11-15T06:16:31;11.00;99.90
33139;DHT22;19501;50.948;5.316;2022-11-15T06:18:57;11.10;99.90
33139;DHT22;19501;50.948;5.316;2022-11-15T06:21:22;11.10;99.90
33139;DHT22;19501;50.948;5.316;2022-11-15T06:23:48;11.10;99.90
33139;DHT22;19501;50.948;5.316;2022-11-15T06:26:14;11.10;99.90
33139;DHT22;19501;50.948;5.316;2022-11-15T06:28:40;11.10;99.90
33139;DHT22;19501;50.948;5.316;2022-11-15T06:31:08;11.10;99.90
33139;DHT22;19501;50.948;5.316;2022-11-15T06:33:34;11.00;99.90
33139;DHT22;19501;50.948;5.316;2022-11-15T06:36:04;11.00;99.90
33139;DHT22;19501;50.948;5.316;2022-11-15T06:38:30;10.90;99.90
33139;DHT22;19501;50.948;5.316;2022-11-15T06:41:05;10.80;99.90
33139;DHT22;19501;50.948;5.316;2022-11-15T06:43:31;10.80;99.90
33139;DHT22;19501;50.948;5.316;2022-11-15T06:46:01;10.70;99.90
33139;DHT22;19501;50.948;5.316;2022-11-15T06:48:28;10.60;99.90
33139;DHT22;19501;50.948;5.316;2022-11-15T06:50:56;10.60;99.90
33139;DHT22;19501;50.948;5.316;2022-11-15T06:53:23;10.60;99.90
33139;DHT22;19501;50.948;5.316;2022-11-15T06:55:49;10.60;99.90
33139;DHT22;19501;50.948;5.316;2022-11-15T06:58:15;10.70;99.90
33139;DHT22;19501;50.948;5.316;2022-11-15T07:00:41;10.70;99.90
33139;DHT22;19501;50.948;5.316;2022-11-15T07:03:07;10.70;99.90
33139;DHT22;19501;50.948;5.316;2022-11-15T07:05:34;10.60;99.90
33139;DHT22;19501;50.948;5.316;2022-11-15T07:08:00;10.60;99.90
33139;DHT22;19501;50.948;5.316;2022-11-15T07:10:26;10.70;99.90
33139;DHT22;19501;50.948;5.316;2022-11-15T07:12:53;10.50;99.90
33139;DHT22;19501;50.948;5.316;2022-11-15T07:15:21;10.50;99.90
33139;DHT22;19501;50.948;5.316;2022-11-15T07:17:48;10.40;99.90
33139;DHT22;19501;50.948;5.316;2022-11-15T07:20:16;10.40;99.90
33139;DHT22;19501;50.948;5.316;2022-11-15T07:22:42;10.40;99.90
33139;DHT22;19501;50.948;5.316;2022-11-15T07:25:10;10.30;99.90
33139;DHT22;19501;50.948;5.316;2022-11-15T07:27:36;10.30;99.90
33139;DHT22;19501;50.948;5.316;2022-11-15T07:30:02;10.30;99.90
33139;DHT22;19501;50.948;5.316;2022-11-15T07:32:28;10.30;99.90
33139;DHT22;19501;50.948;5.316;2022-11-15T07:34:54;10.20;99.90
33139;DHT22;19501;50.948;5.316;2022-11-15T07:37:20;10.30;99.90
33139;DHT22;19501;50.948;5.316;2022-11-15T07:39:45;10.30;99.90
33139;DHT22;19501;50.948;5.316;2022-11-15T07:42:11;10.30;99.90
33139;DHT22;19501;50.948;5.316;2022-11-15T07:44:56;10.20;99.90
33139;DHT22;19501;50.948;5.316;2022-11-15T07:47:21;10.30;99.90
33139;DHT22;19501;50.948;5.316;2022-11-15T07:49:47;10.30;99.90
33139;DHT22;19501;50.948;5.316;2022-11-15T07:52:13;10.30;99.90
33139;DHT22;19501;50.948;5.316;2022-11-15T07:54:39;10.30;99.90
33139;DHT22;19501;50.948;5.316;2022-11-15T07:57:05;10.40;99.90
33139;DHT22;19501;50.948;5.316;2022-11-15T07:59:32;10.40;99.90
33139;DHT22;19501;50.948;5.316;2022-11-15T08:01:58;10.30;99.90
33139;DHT22;19501;50.948;5.316;2022-11-15T08:04:24;10.40;99.90
33139;DHT22;19501;50.948;5.316;2022-11-15T08:06:49;10.50;99.90
33139;DHT22;19501;50.948;5.316;2022-11-15T08:09:15;10.50;99.90
33139;DHT22;19501;50.948;5.316;2022-11-15T08:11:41;10.50;99.90
33139;DHT22;19501;50.948;5.316;2022-11-15T08:14:10;10.50;99.90
33139;DHT22;19501;50.948;5.316;2022-11-15T08:16:36;10.50;99.90
33139;DHT22;19501;50.948;5.316;2022-11-15T08:19:01;10.50;99.90
33139;DHT22;19501;50.948;5.316;2022-11-15T08:21:28;10.50;99.90
33139;DHT22;19501;50.948;5.316;2022-11-15T08:23:54;10.50;99.90
33139;DHT22;19501;50.948;5.316;2022-11-15T08:26:19;10.40;99.90
33139;DHT22;19501;50.948;5.316;2022-11-15T08:28:45;10.40;99.90
33139;DHT22;19501;50.948;5.316;2022-11-15T08:31:15;10.40;99.90
33139;DHT22;19501;50.948;5.316;2022-11-15T08:33:43;10.40;99.90
33139;DHT22;19501;50.948;5.316;2022-11-15T08:36:13;10.40;99.90
33139;DHT22;19501;50.948;5.316;2022-11-15T08:38:40;10.40;99.90
33139;DHT22;19501;50.948;5.316;2022-11-15T08:41:06;10.40;99.90
33139;DHT22;19501;50.948;5.316;2022-11-15T08:43:32;10.40;99.90
33139;DHT22;19501;50.948;5.316;2022-11-15T08:45:58;10.40;99.90
33139;DHT22;19501;50.948;5.316;2022-11-15T08:48:24;10.40;99.90
33139;DHT22;19501;50.948;5.316;2022-11-15T08:50:54;10.40;99.90
33139;DHT22;19501;50.948;5.316;2022-11-15T08:53:20;10.50;99.90
33139;DHT22;19501;50.948;5.316;2022-11-15T08:55:46;10.50;99.90
33139;DHT22;19501;50.948;5.316;2022-11-15T08:58:11;10.50;99.90
33139;DHT22;19501;50.948;5.316;2022-11-15T09:00:37;10.60;99.90
33139;DHT22;19501;50.948;5.316;2022-11-15T09:03:07;10.60;99.90
33139;DHT22;19501;50.948;5.316;2022-11-15T09:05:36;10.60;99.90
33139;DHT22;19501;50.948;5.316;2022-11-15T09:08:02;10.70;99.90
33139;DHT22;19501;50.948;5.316;2022-11-15T09:10:28;10.70;99.90
33139;DHT22;19501;50.948;5.316;2022-11-15T09:12:54;10.80;99.90
33139;DHT22;19501;50.948;5.316;2022-11-15T09:15:20;10.80;99.90
33139;DHT22;19501;50.948;5.316;2022-11-15T09:17:45;10.90;99.90
33139;DHT22;19501;50.948;5.316;2022-11-15T09:20:11;10.90;99.90
33139;DHT22;19501;50.948;5.316;2022-11-15T09:22:37;10.80;99.90
33139;DHT22;19501;50.948;5.316;2022-11-15T09:25:05;10.90;99.90
33139;DHT22;19501;50.948;5.316;2022-11-15T09:27:30;10.80;99.90
33139;DHT22;19501;50.948;5.316;2022-11-15T09:29:56;10.80;99.90
33139;DHT22;19501;50.948;5.316;2022-11-15T09:32:22;10.80;99.90
33139;DHT22;19501;50.948;5.316;2022-11-15T09:34:50;10.80;99.90
33139;DHT22;19501;50.948;5.316;2022-11-15T09:37:16;10.80;99.90
33139;DHT22;19501;50.948;5.316;2022-11-15T09:39:42;10.90;99.90
33139;DHT22;19501;50.948;5.316;2022-11-15T09:48:27;11.10;99.90
33139;DHT22;19501;50.948;5.316;2022-11-15T09:50:58;11.20;99.90
33139;DHT22;19501;50.948;5.316;2022-11-15T09:53:26;11.30;99.90
33139;DHT22;19501;50.948;5.316;2022-11-15T09:56:14;11.40;99.90
33139;DHT22;19501;50.948;5.316;2022-11-15T10:04:23;11.70;99.90
33139;DHT22;19501;50.948;5.316;2022-11-15T10:07:18;11.70;99.90
33139;DHT22;19501;50.948;5.316;2022-11-15T10:12:33;11.70;99.90
33139;DHT22;19501;50.948;5.316;2022-11-15T10:15:10;11.70;99.90
33139;DHT22;19501;50.948;5.316;2022-11-15T10:17:46;11.70;99.90
33139;DHT22;19501;50.948;5.316;2022-11-15T10:20:28;11.70;99.90
33139;DHT22;19501;50.948;5.316;2022-11-15T10:23:00;11.90;99.90
33139;DHT22;19501;50.948;5.316;2022-11-15T10:25:28;11.90;99.90
33139;DHT22;19501;50.948;5.316;2022-11-15T10:30:49;12.20;99.90
33139;DHT22;19501;50.948;5.316;2022-11-15T10:33:30;12.20;99.90
33139;DHT22;19501;50.948;5.316;2022-11-15T10:41:28;12.20;99.90
33139;DHT22;19501;50.948;5.316;2022-11-15T10:44:25;12.00;99.90
33139;DHT22;19501;50.948;5.316;2022-11-15T10:49:22;12.10;99.90
33139;DHT22;19501;50.948;5.316;2022-11-15T10:54:46;12.40;99.90
33139;DHT22;19501;50.948;5.316;2022-11-15T10:57:19;12.50;99.90
33139;DHT22;19501;50.948;5.316;2022-11-15T10:59:48;12.60;99.90
33139;DHT22;19501;50.948;5.316;2022-11-15T11:02:40;12.50;99.90
33139;DHT22;19501;50.948;5.316;2022-11-15T11:05:36;12.60;99.90
33139;DHT22;19501;50.948;5.316;2022-11-15T11:10:52;12.80;99.90
33139;DHT22;19501;50.948;5.316;2022-11-15T11:13:31;13.00;99.90
33139;DHT22;19501;50.948;5.316;2022-11-15T11:24:08;13.20;99.90
33139;DHT22;19501;50.948;5.316;2022-11-15T11:26:40;13.40;99.90
33139;DHT22;19501;50.948;5.316;2022-11-15T11:29:30;13.60;99.90
33139;DHT22;19501;50.948;5.316;2022-11-15T11:35:03;13.90;99.90
33139;DHT22;19501;50.948;5.316;2022-11-15T11:50:27;13.90;99.90
33139;DHT22;19501;50.948;5.316;2022-11-15T11:53:15;14.00;99.90
33139;DHT22;19501;50.948;5.316;2022-11-15T11:55:52;14.20;99.90
33139;DHT22;19501;50.948;5.316;2022-11-15T11:58:33;14.10;99.90
33139;DHT22;19501;50.948;5.316;2022-11-15T12:01:14;14.30;99.90
33139;DHT22;19501;50.948;5.316;2022-11-15T12:04:09;14.30;99.90
33139;DHT22;19501;50.948;5.316;2022-11-15T12:06:52;14.20;99.90
33139;DHT22;19501;50.948;5.316;2022-11-15T12:09:49;14.00;99.90
33139;DHT22;19501;50.948;5.316;2022-11-15T12:17:35;13.70;99.90
33139;DHT22;19501;50.948;5.316;2022-11-15T12:20:17;13.70;99.90
33139;DHT22;19501;50.948;5.316;2022-11-15T12:23:08;13.80;99.90
33139;DHT22;19501;50.948;5.316;2022-11-15T12:33:44;14.00;99.90
33139;DHT22;19501;50.948;5.316;2022-11-15T12:36:53;14.00;99.90
33139;DHT22;19501;50.948;5.316;2022-11-15T12:39:13;14.10;99.90
33139;DHT22;19501;50.948;5.316;2022-11-15T12:41:40;14.00;99.90
33139;DHT22;19501;50.948;5.316;2022-11-15T13:02:35;14.40;99.90
33139;DHT22;19501;50.948;5.316;2022-11-15T13:17:39;14.40;99.90
33139;DHT22;19501;50.948;5.316;2022-11-15T13:28:48;14.50;99.90
33139;DHT22;19501;50.948;5.316;2022-11-15T13:30:51;14.40;99.90
33139;DHT22;19501;50.948;5.316;2022-11-15T13:33:22;14.40;99.90
33139;DHT22;19501;50.948;5.316;2022-11-15T13:35:56;14.30;99.90
33139;DHT22;19501;50.948;5.316;2022-11-15T13:38:32;14.40;99.90
33139;DHT22;19501;50.948;5.316;2022-11-15T13:40:59;14.30;99.90
33139;DHT22;19501;50.948;5.316;2022-11-15T13:43:35;14.30;99.90
33139;DHT22;19501;50.948;5.316;2022-11-15T13:48:30;14.40;99.90
33139;DHT22;19501;50.948;5.316;2022-11-15T13:50:57;14.40;99.90
33139;DHT22;19501;50.948;5.316;2022-11-15T13:53:24;14.50;99.90
33139;DHT22;19501;50.948;5.316;2022-11-15T13:55:51;14.50;99.90
33139;DHT22;19501;50.948;5.316;2022-11-15T13:58:18;14.50;99.90
33139;DHT22;19501;50.948;5.316;2022-11-15T14:00:44;14.50;99.90
33139;DHT22;19501;50.948;5.316;2022-11-15T14:03:22;14.50;99.90
33139;DHT22;19501;50.948;5.316;2022-11-15T14:06:13;14.50;99.90
33139;DHT22;19501;50.948;5.316;2022-11-15T14:11:36;14.40;99.90
33139;DHT22;19501;50.948;5.316;2022-11-15T14:19:05;14.40;99.90
33139;DHT22;19501;50.948;5.316;2022-11-15T14:21:32;14.30;99.90
33139;DHT22;19501;50.948;5.316;2022-11-15T14:24:18;14.30;99.90
33139;DHT22;19501;50.948;5.316;2022-11-15T14:26:44;14.20;99.90
33139;DHT22;19501;50.948;5.316;2022-11-15T14:29:27;14.20;99.90
33139;DHT22;19501;50.948;5.316;2022-11-15T14:31:55;14.10;99.90
33139;DHT22;19501;50.948;5.316;2022-11-15T14:34:32;14.20;99.90
33139;DHT22;19501;50.948;5.316;2022-11-15T14:36:57;14.20;99.90
33139;DHT22;19501;50.948;5.316;2022-11-15T14:39:23;14.20;99.90
33139;DHT22;19501;50.948;5.316;2022-11-15T14:41:50;14.20;99.90
33139;DHT22;19501;50.948;5.316;2022-11-15T14:44:16;14.20;99.90
33139;DHT22;19501;50.948;5.316;2022-11-15T14:46:44;14.20;99.90
33139;DHT22;19501;50.948;5.316;2022-11-15T14:49:09;14.20;99.90
33139;DHT22;19501;50.948;5.316;2022-11-15T14:51:35;14.10;99.90
33139;DHT22;19501;50.948;5.316;2022-11-15T14:54:01;14.10;99.90
33139;DHT22;19501;50.948;5.316;2022-11-15T14:56:27;14.10;99.90
33139;DHT22;19501;50.948;5.316;2022-11-15T14:58:52;14.10;99.90
33139;DHT22;19501;50.948;5.316;2022-11-15T15:01:25;14.10;99.90
33139;DHT22;19501;50.948;5.316;2022-11-15T15:03:52;14.10;99.90
33139;DHT22;19501;50.948;5.316;2022-11-15T15:06:21;14.10;99.90
33139;DHT22;19501;50.948;5.316;2022-11-15T15:08:47;14.00;99.90
33139;DHT22;19501;50.948;5.316;2022-11-15T15:11:21;14.00;99.90
33139;DHT22;19501;50.948;5.316;2022-11-15T15:13:48;14.00;99.90
33139;DHT22;19501;50.948;5.316;2022-11-15T15:16:14;14.10;99.90
33139;DHT22;19501;50.948;5.316;2022-11-15T15:18:40;14.10;99.90
33139;DHT22;19501;50.948;5.316;2022-11-15T15:21:20;14.10;99.90
33139;DHT22;19501;50.948;5.316;2022-11-15T15:23:47;14.10;99.90
33139;DHT22;19501;50.948;5.316;2022-11-15T15:26:13;14.10;99.90
33139;DHT22;19501;50.948;5.316;2022-11-15T15:28:38;14.00;99.90
33139;DHT22;19501;50.948;5.316;2022-11-15T15:31:04;13.90;99.90
33139;DHT22;19501;50.948;5.316;2022-11-15T15:33:31;13.90;99.90
33139;DHT22;19501;50.948;5.316;2022-11-15T15:35:57;13.80;99.90
33139;DHT22;19501;50.948;5.316;2022-11-15T15:38:23;13.70;99.90
33139;DHT22;19501;50.948;5.316;2022-11-15T15:40:49;13.70;99.90
33139;DHT22;19501;50.948;5.316;2022-11-15T15:43:15;13.60;99.90
33139;DHT22;19501;50.948;5.316;2022-11-15T15:45:41;13.60;99.90
33139;DHT22;19501;50.948;5.316;2022-11-15T15:48:14;13.50;99.90
33139;DHT22;19501;50.948;5.316;2022-11-15T15:50:40;13.40;99.90
33139;DHT22;19501;50.948;5.316;2022-11-15T15:53:09;13.40;99.90
33139;DHT22;19501;50.948;5.316;2022-11-15T15:55:36;13.40;99.90
33139;DHT22;19501;50.948;5.316;2022-11-15T15:58:03;13.40;99.90
33139;DHT22;19501;50.948;5.316;2022-11-15T16:00:29;13.40;99.90
33139;DHT22;19501;50.948;5.316;2022-11-15T16:02:58;13.50;99.90
33139;DHT22;19501;50.948;5.316;2022-11-15T16:05:24;13.50;99.90
33139;DHT22;19501;50.948;5.316;2022-11-15T16:07:50;13.50;99.90
33139;DHT22;19501;50.948;5.316;2022-11-15T16:10:27;13.40;99.90
33139;DHT22;19501;50.948;5.316;2022-11-15T16:12:54;13.50;99.90
33139;DHT22;19501;50.948;5.316;2022-11-15T16:15:23;13.60;99.90
33139;DHT22;19501;50.948;5.316;2022-11-15T16:17:54;13.50;99.90
33139;DHT22;19501;50.948;5.316;2022-11-15T16:20:35;13.40;99.90
33139;DHT22;19501;50.948;5.316;2022-11-15T16:23:06;13.40;99.90
33139;DHT22;19501;50.948;5.316;2022-11-15T16:25:39;13.40;99.90
33139;DHT22;19501;50.948;5.316;2022-11-15T16:28:07;13.30;99.90
33139;DHT22;19501;50.948;5.316;2022-11-15T16:30:34;13.20;99.90
33139;DHT22;19501;50.948;5.316;2022-11-15T16:33:00;13.20;99.90
33139;DHT22;19501;50.948;5.316;2022-11-15T16:35:25;13.20;99.90
33139;DHT22;19501;50.948;5.316;2022-11-15T16:37:51;13.10;99.90
33139;DHT22;19501;50.948;5.316;2022-11-15T16:42:50;12.80;99.90
33139;DHT22;19501;50.948;5.316;2022-11-15T16:45:20;12.80;99.90
33139;DHT22;19501;50.948;5.316;2022-11-15T16:47:46;12.70;99.90
33139;DHT22;19501;50.948;5.316;2022-11-15T16:50:30;12.70;99.90
33139;DHT22;19501;50.948;5.316;2022-11-15T16:52:58;12.70;99.90
33139;DHT22;19501;50.948;5.316;2022-11-15T16:55:25;12.60;99.90
33139;DHT22;19501;50.948;5.316;2022-11-15T16:57:53;12.60;99.90
33139;DHT22;19501;50.948;5.316;2022-11-15T17:00:20;12.60;99.90
33139;DHT22;19501;50.948;5.316;2022-11-15T17:02:47;12.60;99.90
33139;DHT22;19501;50.948;5.316;2022-11-15T17:05:13;12.50;99.90
33139;DHT22;19501;50.948;5.316;2022-11-15T17:07:40;12.50;99.90
33139;DHT22;19501;50.948;5.316;2022-11-15T17:10:06;12.50;99.90
33139;DHT22;19501;50.948;5.316;2022-11-15T17:12:34;12.50;99.90
33139;DHT22;19501;50.948;5.316;2022-11-15T17:15:00;12.50;99.90
33139;DHT22;19501;50.948;5.316;2022-11-15T17:17:26;12.50;99.90
33139;DHT22;19501;50.948;5.316;2022-11-15T17:19:52;12.50;99.90
33139;DHT22;19501;50.948;5.316;2022-11-15T17:22:19;12.50;99.90
33139;DHT22;19501;50.948;5.316;2022-11-15T17:24:48;12.50;99.90
33139;DHT22;19501;50.948;5.316;2022-11-15T17:27:14;12.60;99.90
33139;DHT22;19501;50.948;5.316;2022-11-15T17:29:40;12.50;99.90
33139;DHT22;19501;50.948;5.316;2022-11-15T17:32:09;12.50;99.90
33139;DHT22;19501;50.948;5.316;2022-11-15T17:34:36;12.50;99.90
33139;DHT22;19501;50.948;5.316;2022-11-15T17:37:03;12.50;99.90
33139;DHT22;19501;50.948;5.316;2022-11-15T17:39:30;12.50;99.90
33139;DHT22;19501;50.948;5.316;2022-11-15T17:41:55;12.50;99.90
33139;DHT22;19501;50.948;5.316;2022-11-15T17:44:21;12.60;99.90
33139;DHT22;19501;50.948;5.316;2022-11-15T17:46:47;12.60;99.90
33139;DHT22;19501;50.948;5.316;2022-11-15T17:49:13;12.60;99.90
33139;DHT22;19501;50.948;5.316;2022-11-15T17:51:39;12.70;99.90
33139;DHT22;19501;50.948;5.316;2022-11-15T17:54:05;12.80;99.90
33139;DHT22;19501;50.948;5.316;2022-11-15T17:56:31;12.80;99.90
33139;DHT22;19501;50.948;5.316;2022-11-15T17:58:58;12.80;99.90
33139;DHT22;19501;50.948;5.316;2022-11-15T18:01:35;12.90;99.90
33139;DHT22;19501;50.948;5.316;2022-11-15T18:04:03;12.90;99.90
33139;DHT22;19501;50.948;5.316;2022-11-15T18:06:33;12.80;99.90